sensor_id;sensor_type;location;lat;lon;timestamp;P1;durP1;ratioP1;P2;durP2;ratioP2
44110;SDS011;29774;52.664;5.074;2023-07-30T00:01:20;6.95;;;2.70;;
44110;SDS011;29774;52.664;5.074;2023-07-30T00:03:45;7.80;;;2.67;;
44110;SDS011;29774;52.664;5.074;2023-07-30T00:06:11;12.13;;;2.80;;
44110;SDS011;29774;52.664;5.074;2023-07-30T00:08:36;7.22;;;2.72;;
44110;SDS011;29774;52.664;5.074;2023-07-30T00:11:02;6.43;;;2.45;;
44110;SDS011;29774;52.664;5.074;2023-07-30T00:13:28;13.13;;;3.55;;
44110;SDS011;29774;52.664;5.074;2023-07-30T00:15:53;11.35;;;2.63;;
44110;SDS011;29774;52.664;5.074;2023-07-30T00:18:19;9.77;;;2.72;;
44110;SDS011;29774;52.664;5.074;2023-07-30T00:20:44;8.65;;;2.42;;
44110;SDS011;29774;52.664;5.074;2023-07-30T00:23:10;7.60;;;2.28;;
44110;SDS011;29774;52.664;5.074;2023-07-30T00:25:36;5.00;;;2.58;;
44110;SDS011;29774;52.664;5.074;2023-07-30T00:28:02;9.18;;;2.67;;
44110;SDS011;29774;52.664;5.074;2023-07-30T00:30:27;8.95;;;2.55;;
44110;SDS011;29774;52.664;5.074;2023-07-30T00:32:53;11.10;;;2.67;;
44110;SDS011;29774;52.664;5.074;2023-07-30T00:35:19;5.18;;;2.05;;
44110;SDS011;29774;52.664;5.074;2023-07-30T00:37:44;13.23;;;3.28;;
44110;SDS011;29774;52.664;5.074;2023-07-30T00:40:10;7.18;;;2.47;;
44110;SDS011;29774;52.664;5.074;2023-07-30T00:42:36;9.88;;;3.22;;
44110;SDS011;29774;52.664;5.074;2023-07-30T00:45:02;7.75;;;2.28;;
44110;SDS011;29774;52.664;5.074;2023-07-30T00:47:28;13.35;;;3.03;;
44110;SDS011;29774;52.664;5.074;2023-07-30T00:49:54;7.63;;;2.78;;
44110;SDS011;29774;52.664;5.074;2023-07-30T00:52:20;9.50;;;2.80;;
44110;SDS011;29774;52.664;5.074;2023-07-30T00:54:49;13.05;;;2.97;;
44110;SDS011;29774;52.664;5.074;2023-07-30T00:57:16;11.07;;;3.40;;
44110;SDS011;29774;52.664;5.074;2023-07-30T00:59:44;12.57;;;2.97;;
44110;SDS011;29774;52.664;5.074;2023-07-30T01:02:11;8.23;;;2.10;;
44110;SDS011;29774;52.664;5.074;2023-07-30T01:04:37;5.68;;;2.08;;
44110;SDS011;29774;52.664;5.074;2023-07-30T01:07:04;8.35;;;1.95;;
44110;SDS011;29774;52.664;5.074;2023-07-30T01:09:31;7.45;;;2.13;;
44110;SDS011;29774;52.664;5.074;2023-07-30T01:11:57;7.25;;;2.42;;
44110;SDS011;29774;52.664;5.074;2023-07-30T01:14:24;15.00;;;3.33;;
44110;SDS011;29774;52.664;5.074;2023-07-30T01:16:51;6.75;;;2.05;;
44110;SDS011;29774;52.664;5.074;2023-07-30T01:19:17;11.93;;;2.53;;
44110;SDS011;29774;52.664;5.074;2023-07-30T01:21:43;7.72;;;3.00;;
44110;SDS011;29774;52.664;5.074;2023-07-30T01:24:09;6.78;;;1.92;;
44110;SDS011;29774;52.664;5.074;2023-07-30T01:26:45;14.48;;;2.60;;
44110;SDS011;29774;52.664;5.074;2023-07-30T01:29:16;9.45;;;2.53;;
44110;SDS011;29774;52.664;5.074;2023-07-30T01:31:47;11.50;;;2.63;;
44110;SDS011;29774;52.664;5.074;2023-07-30T01:34:20;8.20;;;2.22;;
44110;SDS011;29774;52.664;5.074;2023-07-30T01:36:47;6.65;;;2.13;;
44110;SDS011;29774;52.664;5.074;2023-07-30T01:39:14;9.27;;;2.90;;
44110;SDS011;29774;52.664;5.074;2023-07-30T01:41:41;8.85;;;2.42;;
44110;SDS011;29774;52.664;5.074;2023-07-30T01:44:06;11.68;;;4.03;;
44110;SDS011;29774;52.664;5.074;2023-07-30T01:46:32;10.82;;;2.53;;
44110;SDS011;29774;52.664;5.074;2023-07-30T01:48:58;11.25;;;2.85;;
44110;SDS011;29774;52.664;5.074;2023-07-30T01:51:23;11.70;;;2.83;;
44110;SDS011;29774;52.664;5.074;2023-07-30T01:53:49;8.00;;;2.72;;
44110;SDS011;29774;52.664;5.074;2023-07-30T01:56:14;10.70;;;3.05;;
44110;SDS011;29774;52.664;5.074;2023-07-30T01:58:40;8.95;;;2.20;;
44110;SDS011;29774;52.664;5.074;2023-07-30T02:01:05;6.50;;;2.00;;
44110;SDS011;29774;52.664;5.074;2023-07-30T02:03:31;7.20;;;2.08;;
44110;SDS011;29774;52.664;5.074;2023-07-30T02:05:56;11.23;;;2.90;;
44110;SDS011;29774;52.664;5.074;2023-07-30T02:08:22;5.63;;;1.73;;
44110;SDS011;29774;52.664;5.074;2023-07-30T02:10:54;11.43;;;3.10;;
44110;SDS011;29774;52.664;5.074;2023-07-30T02:13:21;9.73;;;2.55;;
44110;SDS011;29774;52.664;5.074;2023-07-30T02:15:47;9.82;;;2.38;;
44110;SDS011;29774;52.664;5.074;2023-07-30T02:18:12;11.00;;;2.60;;
44110;SDS011;29774;52.664;5.074;2023-07-30T02:20:38;14.18;;;2.90;;
44110;SDS011;29774;52.664;5.074;2023-07-30T02:23:03;16.27;;;2.83;;
44110;SDS011;29774;52.664;5.074;2023-07-30T02:25:29;7.75;;;1.90;;
44110;SDS011;29774;52.664;5.074;2023-07-30T02:27:55;8.23;;;2.45;;
44110;SDS011;29774;52.664;5.074;2023-07-30T02:30:21;11.90;;;2.10;;
44110;SDS011;29774;52.664;5.074;2023-07-30T02:32:47;10.18;;;2.53;;
44110;SDS011;29774;52.664;5.074;2023-07-30T02:35:12;15.88;;;3.13;;
44110;SDS011;29774;52.664;5.074;2023-07-30T02:37:38;11.10;;;2.28;;
44110;SDS011;29774;52.664;5.074;2023-07-30T02:40:03;10.70;;;2.30;;
44110;SDS011;29774;52.664;5.074;2023-07-30T02:42:30;7.93;;;2.10;;
44110;SDS011;29774;52.664;5.074;2023-07-30T02:44:56;8.90;;;2.15;;
44110;SDS011;29774;52.664;5.074;2023-07-30T02:47:22;5.80;;;1.60;;
44110;SDS011;29774;52.664;5.074;2023-07-30T02:49:47;13.90;;;2.92;;
44110;SDS011;29774;52.664;5.074;2023-07-30T02:52:13;12.15;;;2.85;;
44110;SDS011;29774;52.664;5.074;2023-07-30T02:54:38;9.48;;;3.17;;
44110;SDS011;29774;52.664;5.074;2023-07-30T02:57:04;7.50;;;1.88;;
44110;SDS011;29774;52.664;5.074;2023-07-30T02:59:30;3.83;;;1.83;;
44110;SDS011;29774;52.664;5.074;2023-07-30T03:01:55;7.13;;;2.00;;
44110;SDS011;29774;52.664;5.074;2023-07-30T03:04:21;8.40;;;1.80;;
44110;SDS011;29774;52.664;5.074;2023-07-30T03:06:46;9.07;;;2.58;;
44110;SDS011;29774;52.664;5.074;2023-07-30T03:09:12;6.50;;;2.00;;
44110;SDS011;29774;52.664;5.074;2023-07-30T03:11:38;11.13;;;2.50;;
44110;SDS011;29774;52.664;5.074;2023-07-30T03:14:03;11.20;;;2.22;;
44110;SDS011;29774;52.664;5.074;2023-07-30T03:16:29;8.60;;;1.88;;
44110;SDS011;29774;52.664;5.074;2023-07-30T03:18:54;7.97;;;2.05;;
44110;SDS011;29774;52.664;5.074;2023-07-30T03:21:20;6.22;;;1.75;;
44110;SDS011;29774;52.664;5.074;2023-07-30T03:23:46;3.35;;;1.40;;
44110;SDS011;29774;52.664;5.074;2023-07-30T03:26:13;4.97;;;1.48;;
44110;SDS011;29774;52.664;5.074;2023-07-30T03:28:39;5.05;;;1.27;;
44110;SDS011;29774;52.664;5.074;2023-07-30T03:31:04;6.97;;;1.50;;
44110;SDS011;29774;52.664;5.074;2023-07-30T03:33:30;7.38;;;1.48;;
44110;SDS011;29774;52.664;5.074;2023-07-30T03:35:56;4.75;;;1.50;;
44110;SDS011;29774;52.664;5.074;2023-07-30T03:38:22;8.73;;;1.75;;
44110;SDS011;29774;52.664;5.074;2023-07-30T03:40:47;3.50;;;1.40;;
44110;SDS011;29774;52.664;5.074;2023-07-30T03:43:13;4.57;;;1.38;;
44110;SDS011;29774;52.664;5.074;2023-07-30T03:45:38;3.90;;;1.20;;
44110;SDS011;29774;52.664;5.074;2023-07-30T03:48:04;6.47;;;1.85;;
44110;SDS011;29774;52.664;5.074;2023-07-30T03:50:30;4.47;;;1.50;;
44110;SDS011;29774;52.664;5.074;2023-07-30T03:52:55;5.43;;;1.23;;
44110;SDS011;29774;52.664;5.074;2023-07-30T03:55:22;4.90;;;1.60;;
44110;SDS011;29774;52.664;5.074;2023-07-30T03:57:49;2.30;;;1.40;;
44110;SDS011;29774;52.664;5.074;2023-07-30T04:00:14;4.10;;;1.38;;
44110;SDS011;29774;52.664;5.074;2023-07-30T04:02:40;2.92;;;1.48;;
44110;SDS011;29774;52.664;5.074;2023-07-30T04:05:06;7.55;;;1.80;;
44110;SDS011;29774;52.664;5.074;2023-07-30T04:07:31;5.97;;;1.33;;
44110;SDS011;29774;52.664;5.074;2023-07-30T04:09:57;5.38;;;1.27;;
44110;SDS011;29774;52.664;5.074;2023-07-30T04:12:23;5.10;;;1.30;;
44110;SDS011;29774;52.664;5.074;2023-07-30T04:14:48;3.67;;;1.40;;
44110;SDS011;29774;52.664;5.074;2023-07-30T04:17:14;7.70;;;1.45;;
44110;SDS011;29774;52.664;5.074;2023-07-30T04:19:39;4.03;;;1.70;;
44110;SDS011;29774;52.664;5.074;2023-07-30T04:22:05;3.92;;;1.52;;
44110;SDS011;29774;52.664;5.074;2023-07-30T04:24:31;5.05;;;1.30;;
44110;SDS011;29774;52.664;5.074;2023-07-30T04:26:56;3.80;;;1.08;;
44110;SDS011;29774;52.664;5.074;2023-07-30T04:29:22;3.38;;;0.93;;
44110;SDS011;29774;52.664;5.074;2023-07-30T04:31:48;1.60;;;0.90;;
44110;SDS011;29774;52.664;5.074;2023-07-30T04:34:13;3.42;;;1.40;;
44110;SDS011;29774;52.664;5.074;2023-07-30T04:36:40;3.70;;;1.00;;
44110;SDS011;29774;52.664;5.074;2023-07-30T04:39:05;3.42;;;1.20;;
44110;SDS011;29774;52.664;5.074;2023-07-30T04:41:31;9.00;;;2.03;;
44110;SDS011;29774;52.664;5.074;2023-07-30T04:43:56;3.78;;;1.08;;
44110;SDS011;29774;52.664;5.074;2023-07-30T04:46:22;3.08;;;1.30;;
44110;SDS011;29774;52.664;5.074;2023-07-30T04:48:48;5.15;;;1.15;;
44110;SDS011;29774;52.664;5.074;2023-07-30T04:51:13;4.60;;;1.23;;
44110;SDS011;29774;52.664;5.074;2023-07-30T04:53:40;4.25;;;1.08;;
44110;SDS011;29774;52.664;5.074;2023-07-30T04:56:05;4.88;;;1.33;;
44110;SDS011;29774;52.664;5.074;2023-07-30T04:58:31;6.95;;;1.70;;
44110;SDS011;29774;52.664;5.074;2023-07-30T05:00:57;2.50;;;1.00;;
44110;SDS011;29774;52.664;5.074;2023-07-30T05:03:22;6.78;;;1.75;;
44110;SDS011;29774;52.664;5.074;2023-07-30T05:05:48;5.82;;;1.33;;
44110;SDS011;29774;52.664;5.074;2023-07-30T05:08:13;2.28;;;1.00;;
44110;SDS011;29774;52.664;5.074;2023-07-30T05:10:39;4.72;;;1.30;;
44110;SDS011;29774;52.664;5.074;2023-07-30T05:13:05;2.92;;;1.20;;
44110;SDS011;29774;52.664;5.074;2023-07-30T05:15:31;4.40;;;1.05;;
44110;SDS011;29774;52.664;5.074;2023-07-30T05:17:57;5.07;;;1.70;;
44110;SDS011;29774;52.664;5.074;2023-07-30T05:20:22;7.32;;;2.17;;
44110;SDS011;29774;52.664;5.074;2023-07-30T05:22:48;5.70;;;1.60;;
44110;SDS011;29774;52.664;5.074;2023-07-30T05:25:14;6.00;;;1.60;;
44110;SDS011;29774;52.664;5.074;2023-07-30T05:27:39;4.28;;;1.30;;
44110;SDS011;29774;52.664;5.074;2023-07-30T05:30:05;3.00;;;0.98;;
44110;SDS011;29774;52.664;5.074;2023-07-30T05:32:31;3.22;;;1.02;;
44110;SDS011;29774;52.664;5.074;2023-07-30T05:34:56;3.55;;;1.33;;
44110;SDS011;29774;52.664;5.074;2023-07-30T05:37:22;2.45;;;1.00;;
44110;SDS011;29774;52.664;5.074;2023-07-30T05:39:48;2.60;;;0.93;;
44110;SDS011;29774;52.664;5.074;2023-07-30T05:42:13;4.60;;;1.08;;
44110;SDS011;29774;52.664;5.074;2023-07-30T05:44:39;2.45;;;1.10;;
44110;SDS011;29774;52.664;5.074;2023-07-30T05:47:05;7.38;;;1.55;;
44110;SDS011;29774;52.664;5.074;2023-07-30T05:49:30;5.60;;;1.58;;
44110;SDS011;29774;52.664;5.074;2023-07-30T05:51:56;7.03;;;1.52;;
44110;SDS011;29774;52.664;5.074;2023-07-30T05:54:22;5.28;;;1.23;;
44110;SDS011;29774;52.664;5.074;2023-07-30T05:56:47;8.25;;;1.60;;
44110;SDS011;29774;52.664;5.074;2023-07-30T05:59:13;5.05;;;1.30;;
44110;SDS011;29774;52.664;5.074;2023-07-30T06:01:39;3.15;;;0.93;;
44110;SDS011;29774;52.664;5.074;2023-07-30T06:04:05;3.53;;;1.20;;
44110;SDS011;29774;52.664;5.074;2023-07-30T06:06:30;4.60;;;1.02;;
44110;SDS011;29774;52.664;5.074;2023-07-30T06:08:56;4.15;;;1.55;;
44110;SDS011;29774;52.664;5.074;2023-07-30T06:11:22;1.95;;;0.90;;
44110;SDS011;29774;52.664;5.074;2023-07-30T06:13:48;5.90;;;1.38;;
44110;SDS011;29774;52.664;5.074;2023-07-30T06:16:13;5.07;;;1.38;;
44110;SDS011;29774;52.664;5.074;2023-07-30T06:18:39;4.97;;;1.20;;
44110;SDS011;29774;52.664;5.074;2023-07-30T06:21:05;7.05;;;1.63;;
44110;SDS011;29774;52.664;5.074;2023-07-30T06:23:31;5.40;;;1.20;;
44110;SDS011;29774;52.664;5.074;2023-07-30T06:25:56;5.05;;;1.27;;
44110;SDS011;29774;52.664;5.074;2023-07-30T06:28:22;5.32;;;1.55;;
44110;SDS011;29774;52.664;5.074;2023-07-30T06:30:48;6.05;;;1.38;;
44110;SDS011;29774;52.664;5.074;2023-07-30T06:33:14;6.45;;;1.55;;
44110;SDS011;29774;52.664;5.074;2023-07-30T06:35:40;5.43;;;1.40;;
44110;SDS011;29774;52.664;5.074;2023-07-30T06:38:06;5.65;;;1.42;;
44110;SDS011;29774;52.664;5.074;2023-07-30T06:40:33;6.00;;;1.35;;
44110;SDS011;29774;52.664;5.074;2023-07-30T06:42:58;4.75;;;1.65;;
44110;SDS011;29774;52.664;5.074;2023-07-30T06:45:24;3.33;;;1.40;;
44110;SDS011;29774;52.664;5.074;2023-07-30T06:47:49;4.25;;;1.35;;
44110;SDS011;29774;52.664;5.074;2023-07-30T06:50:15;3.90;;;1.42;;
44110;SDS011;29774;52.664;5.074;2023-07-30T06:52:41;3.95;;;1.45;;
44110;SDS011;29774;52.664;5.074;2023-07-30T06:55:06;7.28;;;1.40;;
44110;SDS011;29774;52.664;5.074;2023-07-30T06:57:32;6.13;;;1.45;;
44110;SDS011;29774;52.664;5.074;2023-07-30T06:59:58;3.60;;;1.80;;
44110;SDS011;29774;52.664;5.074;2023-07-30T07:02:23;4.03;;;1.00;;
44110;SDS011;29774;52.664;5.074;2023-07-30T07:04:49;3.22;;;1.13;;
44110;SDS011;29774;52.664;5.074;2023-07-30T07:07:15;4.45;;;1.40;;
44110;SDS011;29774;52.664;5.074;2023-07-30T07:09:41;4.65;;;1.10;;
44110;SDS011;29774;52.664;5.074;2023-07-30T07:12:07;3.25;;;1.38;;
44110;SDS011;29774;52.664;5.074;2023-07-30T07:14:32;5.55;;;1.25;;
44110;SDS011;29774;52.664;5.074;2023-07-30T07:16:58;2.70;;;0.93;;
44110;SDS011;29774;52.664;5.074;2023-07-30T07:19:24;5.25;;;1.30;;
44110;SDS011;29774;52.664;5.074;2023-07-30T07:21:49;2.22;;;0.98;;
44110;SDS011;29774;52.664;5.074;2023-07-30T07:24:15;5.43;;;1.40;;
44110;SDS011;29774;52.664;5.074;2023-07-30T07:26:41;3.33;;;1.00;;
44110;SDS011;29774;52.664;5.074;2023-07-30T07:29:07;2.53;;;1.67;;
44110;SDS011;29774;52.664;5.074;2023-07-30T07:31:32;3.45;;;0.80;;
44110;SDS011;29774;52.664;5.074;2023-07-30T07:33:58;4.03;;;1.20;;
44110;SDS011;29774;52.664;5.074;2023-07-30T07:36:23;2.88;;;0.90;;
44110;SDS011;29774;52.664;5.074;2023-07-30T07:38:49;2.92;;;1.00;;
44110;SDS011;29774;52.664;5.074;2023-07-30T07:41:15;3.72;;;0.98;;
44110;SDS011;29774;52.664;5.074;2023-07-30T07:43:42;6.55;;;1.40;;
44110;SDS011;29774;52.664;5.074;2023-07-30T07:46:08;2.50;;;0.77;;
44110;SDS011;29774;52.664;5.074;2023-07-30T07:48:38;5.10;;;1.35;;
44110;SDS011;29774;52.664;5.074;2023-07-30T07:51:05;5.55;;;1.30;;
44110;SDS011;29774;52.664;5.074;2023-07-30T07:53:31;5.15;;;1.48;;
44110;SDS011;29774;52.664;5.074;2023-07-30T07:55:56;5.38;;;1.30;;
44110;SDS011;29774;52.664;5.074;2023-07-30T07:58:22;6.85;;;1.58;;
44110;SDS011;29774;52.664;5.074;2023-07-30T08:00:48;6.18;;;1.70;;
44110;SDS011;29774;52.664;5.074;2023-07-30T08:03:13;6.15;;;1.63;;
44110;SDS011;29774;52.664;5.074;2023-07-30T08:05:39;4.30;;;1.00;;
44110;SDS011;29774;52.664;5.074;2023-07-30T08:08:04;2.05;;;0.90;;
44110;SDS011;29774;52.664;5.074;2023-07-30T08:10:30;3.53;;;1.08;;
44110;SDS011;29774;52.664;5.074;2023-07-30T08:12:56;1.88;;;0.93;;
44110;SDS011;29774;52.664;5.074;2023-07-30T08:15:21;2.88;;;1.20;;
44110;SDS011;29774;52.664;5.074;2023-07-30T08:17:47;5.38;;;1.23;;
44110;SDS011;29774;52.664;5.074;2023-07-30T08:20:12;4.10;;;1.58;;
44110;SDS011;29774;52.664;5.074;2023-07-30T08:22:38;5.63;;;1.15;;
44110;SDS011;29774;52.664;5.074;2023-07-30T08:25:04;5.50;;;1.40;;
44110;SDS011;29774;52.664;5.074;2023-07-30T08:27:30;7.45;;;1.80;;
44110;SDS011;29774;52.664;5.074;2023-07-30T08:29:55;3.80;;;1.15;;
44110;SDS011;29774;52.664;5.074;2023-07-30T08:32:21;4.32;;;1.13;;
44110;SDS011;29774;52.664;5.074;2023-07-30T08:34:47;4.03;;;1.10;;
44110;SDS011;29774;52.664;5.074;2023-07-30T08:37:12;2.90;;;0.90;;
44110;SDS011;29774;52.664;5.074;2023-07-30T08:39:38;4.68;;;0.90;;
44110;SDS011;29774;52.664;5.074;2023-07-30T08:42:03;4.03;;;1.00;;
44110;SDS011;29774;52.664;5.074;2023-07-30T08:44:29;3.47;;;1.45;;
44110;SDS011;29774;52.664;5.074;2023-07-30T08:46:55;2.38;;;0.85;;
44110;SDS011;29774;52.664;5.074;2023-07-30T08:49:20;2.45;;;1.10;;
44110;SDS011;29774;52.664;5.074;2023-07-30T08:51:46;2.45;;;0.95;;
44110;SDS011;29774;52.664;5.074;2023-07-30T08:54:16;2.17;;;0.75;;
44110;SDS011;29774;52.664;5.074;2023-07-30T08:56:43;3.00;;;1.10;;
44110;SDS011;29774;52.664;5.074;2023-07-30T08:59:08;1.88;;;0.85;;
44110;SDS011;29774;52.664;5.074;2023-07-30T09:01:37;5.13;;;1.40;;
44110;SDS011;29774;52.664;5.074;2023-07-30T09:04:05;2.13;;;1.08;;
44110;SDS011;29774;52.664;5.074;2023-07-30T09:06:32;2.80;;;0.93;;
44110;SDS011;29774;52.664;5.074;2023-07-30T09:08:57;2.95;;;0.98;;
44110;SDS011;29774;52.664;5.074;2023-07-30T09:11:26;3.42;;;0.77;;
44110;SDS011;29774;52.664;5.074;2023-07-30T09:13:53;3.08;;;1.08;;
44110;SDS011;29774;52.664;5.074;2023-07-30T09:16:24;3.20;;;0.98;;
44110;SDS011;29774;52.664;5.074;2023-07-30T09:18:51;4.32;;;1.15;;
44110;SDS011;29774;52.664;5.074;2023-07-30T09:21:18;3.92;;;1.38;;
44110;SDS011;29774;52.664;5.074;2023-07-30T09:23:45;2.35;;;1.02;;
44110;SDS011;29774;52.664;5.074;2023-07-30T09:26:12;3.78;;;1.02;;
44110;SDS011;29774;52.664;5.074;2023-07-30T09:28:39;3.38;;;1.15;;
44110;SDS011;29774;52.664;5.074;2023-07-30T09:31:05;2.20;;;0.88;;
44110;SDS011;29774;52.664;5.074;2023-07-30T09:33:32;4.30;;;0.80;;
44110;SDS011;29774;52.664;5.074;2023-07-30T09:36:02;1.88;;;0.90;;
44110;SDS011;29774;52.664;5.074;2023-07-30T09:38:28;1.63;;;0.80;;
44110;SDS011;29774;52.664;5.074;2023-07-30T09:41:01;1.83;;;0.80;;
44110;SDS011;29774;52.664;5.074;2023-07-30T09:43:33;2.70;;;0.80;;
44110;SDS011;29774;52.664;5.074;2023-07-30T09:46:03;1.70;;;0.90;;
44110;SDS011;29774;52.664;5.074;2023-07-30T09:48:31;2.17;;;0.90;;
44110;SDS011;29774;52.664;5.074;2023-07-30T09:51:02;3.20;;;0.90;;
44110;SDS011;29774;52.664;5.074;2023-07-30T09:53:32;2.67;;;1.08;;
44110;SDS011;29774;52.664;5.074;2023-07-30T09:56:00;2.60;;;0.85;;
44110;SDS011;29774;52.664;5.074;2023-07-30T09:58:27;2.38;;;1.10;;
44110;SDS011;29774;52.664;5.074;2023-07-30T10:00:53;1.63;;;0.80;;
44110;SDS011;29774;52.664;5.074;2023-07-30T10:03:22;4.13;;;1.02;;
44110;SDS011;29774;52.664;5.074;2023-07-30T10:05:48;2.83;;;0.90;;
44110;SDS011;29774;52.664;5.074;2023-07-30T10:08:21;2.30;;;1.15;;
44110;SDS011;29774;52.664;5.074;2023-07-30T10:10:51;4.18;;;1.20;;
44110;SDS011;29774;52.664;5.074;2023-07-30T10:13:18;2.47;;;1.20;;
44110;SDS011;29774;52.664;5.074;2023-07-30T10:15:45;4.90;;;1.58;;
44110;SDS011;29774;52.664;5.074;2023-07-30T10:18:11;6.40;;;1.70;;
44110;SDS011;29774;52.664;5.074;2023-07-30T10:20:37;5.38;;;1.30;;
44110;SDS011;29774;52.664;5.074;2023-07-30T10:23:04;8.38;;;1.50;;
44110;SDS011;29774;52.664;5.074;2023-07-30T10:25:41;3.92;;;1.38;;
44110;SDS011;29774;52.664;5.074;2023-07-30T10:30:55;4.03;;;1.48;;
44110;SDS011;29774;52.664;5.074;2023-07-30T10:36:14;3.60;;;0.85;;
44110;SDS011;29774;52.664;5.074;2023-07-30T10:38:52;4.70;;;1.20;;
44110;SDS011;29774;52.664;5.074;2023-07-30T10:41:18;2.80;;;1.33;;
44110;SDS011;29774;52.664;5.074;2023-07-30T10:43:48;2.88;;;1.27;;
44110;SDS011;29774;52.664;5.074;2023-07-30T10:46:16;2.72;;;1.08;;
44110;SDS011;29774;52.664;5.074;2023-07-30T10:48:44;3.08;;;1.02;;
44110;SDS011;29774;52.664;5.074;2023-07-30T10:51:12;2.80;;;0.85;;
44110;SDS011;29774;52.664;5.074;2023-07-30T10:53:41;3.67;;;0.90;;
44110;SDS011;29774;52.664;5.074;2023-07-30T10:56:08;3.58;;;0.90;;
44110;SDS011;29774;52.664;5.074;2023-07-30T10:58:35;4.15;;;1.30;;
44110;SDS011;29774;52.664;5.074;2023-07-30T11:01:02;4.53;;;0.88;;
44110;SDS011;29774;52.664;5.074;2023-07-30T11:03:32;2.83;;;0.98;;
44110;SDS011;29774;52.664;5.074;2023-07-30T11:05:59;3.50;;;1.13;;
44110;SDS011;29774;52.664;5.074;2023-07-30T11:11:01;2.55;;;0.80;;
44110;SDS011;29774;52.664;5.074;2023-07-30T11:13:27;2.85;;;1.00;;
44110;SDS011;29774;52.664;5.074;2023-07-30T11:15:53;2.88;;;0.90;;
44110;SDS011;29774;52.664;5.074;2023-07-30T11:18:19;6.45;;;1.05;;
44110;SDS011;29774;52.664;5.074;2023-07-30T11:20:44;4.03;;;1.25;;
44110;SDS011;29774;52.664;5.074;2023-07-30T11:23:17;4.43;;;1.08;;
44110;SDS011;29774;52.664;5.074;2023-07-30T11:25:47;1.83;;;0.80;;
44110;SDS011;29774;52.664;5.074;2023-07-30T11:28:14;3.05;;;1.00;;
44110;SDS011;29774;52.664;5.074;2023-07-30T11:30:51;1.20;;;0.90;;
44110;SDS011;29774;52.664;5.074;2023-07-30T11:33:17;4.22;;;1.10;;
44110;SDS011;29774;52.664;5.074;2023-07-30T11:35:43;1.88;;;0.95;;
44110;SDS011;29774;52.664;5.074;2023-07-30T11:38:09;2.05;;;0.98;;
44110;SDS011;29774;52.664;5.074;2023-07-30T11:40:34;4.47;;;1.23;;
44110;SDS011;29774;52.664;5.074;2023-07-30T11:43:00;4.15;;;1.50;;
44110;SDS011;29774;52.664;5.074;2023-07-30T11:45:27;13.63;;;2.50;;
44110;SDS011;29774;52.664;5.074;2023-07-30T11:47:52;7.28;;;1.58;;
44110;SDS011;29774;52.664;5.074;2023-07-30T11:50:18;5.45;;;1.42;;
44110;SDS011;29774;52.664;5.074;2023-07-30T11:52:50;6.50;;;1.60;;
44110;SDS011;29774;52.664;5.074;2023-07-30T11:55:20;3.47;;;1.15;;
44110;SDS011;29774;52.664;5.074;2023-07-30T11:57:46;7.82;;;1.40;;
44110;SDS011;29774;52.664;5.074;2023-07-30T12:00:12;6.05;;;1.05;;
44110;SDS011;29774;52.664;5.074;2023-07-30T12:02:38;3.78;;;1.00;;
44110;SDS011;29774;52.664;5.074;2023-07-30T12:05:04;3.38;;;1.40;;
44110;SDS011;29774;52.664;5.074;2023-07-30T12:07:31;3.88;;;1.05;;
44110;SDS011;29774;52.664;5.074;2023-07-30T12:10:10;3.25;;;0.80;;
44110;SDS011;29774;52.664;5.074;2023-07-30T12:12:46;3.28;;;1.13;;
44110;SDS011;29774;52.664;5.074;2023-07-30T12:15:18;2.50;;;0.77;;
44110;SDS011;29774;52.664;5.074;2023-07-30T12:17:43;3.05;;;1.00;;
44110;SDS011;29774;52.664;5.074;2023-07-30T12:20:10;4.32;;;1.05;;
44110;SDS011;29774;52.664;5.074;2023-07-30T12:22:36;6.30;;;1.48;;
44110;SDS011;29774;52.664;5.074;2023-07-30T12:25:03;2.38;;;0.82;;
44110;SDS011;29774;52.664;5.074;2023-07-30T12:27:29;2.22;;;0.90;;
44110;SDS011;29774;52.664;5.074;2023-07-30T12:29:55;4.78;;;1.08;;
44110;SDS011;29774;52.664;5.074;2023-07-30T12:32:21;2.25;;;0.80;;
44110;SDS011;29774;52.664;5.074;2023-07-30T12:34:46;3.83;;;0.90;;
44110;SDS011;29774;52.664;5.074;2023-07-30T12:37:12;3.53;;;1.20;;
44110;SDS011;29774;52.664;5.074;2023-07-30T12:39:38;2.53;;;0.90;;
44110;SDS011;29774;52.664;5.074;2023-07-30T12:42:03;3.40;;;1.10;;
44110;SDS011;29774;52.664;5.074;2023-07-30T12:44:29;2.78;;;1.00;;
44110;SDS011;29774;52.664;5.074;2023-07-30T12:46:55;3.28;;;1.10;;
44110;SDS011;29774;52.664;5.074;2023-07-30T12:49:20;3.45;;;0.98;;
44110;SDS011;29774;52.664;5.074;2023-07-30T12:51:46;4.45;;;1.17;;
44110;SDS011;29774;52.664;5.074;2023-07-30T12:54:11;2.33;;;0.80;;
44110;SDS011;29774;52.664;5.074;2023-07-30T12:56:37;4.50;;;0.90;;
44110;SDS011;29774;52.664;5.074;2023-07-30T12:59:03;2.60;;;0.68;;
44110;SDS011;29774;52.664;5.074;2023-07-30T13:01:28;2.65;;;0.75;;
44110;SDS011;29774;52.664;5.074;2023-07-30T13:03:54;3.70;;;0.82;;
44110;SDS011;29774;52.664;5.074;2023-07-30T13:06:20;2.78;;;1.17;;
44110;SDS011;29774;52.664;5.074;2023-07-30T13:08:46;1.75;;;0.90;;
44110;SDS011;29774;52.664;5.074;2023-07-30T13:11:12;4.00;;;1.00;;
44110;SDS011;29774;52.664;5.074;2023-07-30T13:13:37;2.67;;;0.70;;
44110;SDS011;29774;52.664;5.074;2023-07-30T13:16:04;2.70;;;0.80;;
44110;SDS011;29774;52.664;5.074;2023-07-30T13:18:30;3.10;;;1.10;;
44110;SDS011;29774;52.664;5.074;2023-07-30T13:20:56;2.45;;;0.68;;
44110;SDS011;29774;52.664;5.074;2023-07-30T13:27:24;2.60;;;0.95;;
44110;SDS011;29774;52.664;5.074;2023-07-30T13:29:50;2.03;;;0.60;;
44110;SDS011;29774;52.664;5.074;2023-07-30T13:32:15;1.33;;;0.60;;
44110;SDS011;29774;52.664;5.074;2023-07-30T13:34:41;3.65;;;0.70;;
44110;SDS011;29774;52.664;5.074;2023-07-30T13:37:07;2.67;;;0.73;;
44110;SDS011;29774;52.664;5.074;2023-07-30T13:39:33;4.25;;;0.80;;
44110;SDS011;29774;52.664;5.074;2023-07-30T13:41:58;3.42;;;1.00;;
44110;SDS011;29774;52.664;5.074;2023-07-30T13:44:24;1.65;;;0.65;;
44110;SDS011;29774;52.664;5.074;2023-07-30T13:46:49;2.45;;;0.80;;
44110;SDS011;29774;52.664;5.074;2023-07-30T13:49:15;2.63;;;0.70;;
44110;SDS011;29774;52.664;5.074;2023-07-30T13:51:41;2.08;;;0.65;;
44110;SDS011;29774;52.664;5.074;2023-07-30T13:54:06;3.13;;;0.80;;
44110;SDS011;29774;52.664;5.074;2023-07-30T13:56:33;2.38;;;0.90;;
44110;SDS011;29774;52.664;5.074;2023-07-30T13:58:59;2.95;;;0.60;;
44110;SDS011;29774;52.664;5.074;2023-07-30T14:01:24;4.60;;;1.05;;
44110;SDS011;29774;52.664;5.074;2023-07-30T14:03:50;6.20;;;0.70;;
44110;SDS011;29774;52.664;5.074;2023-07-30T14:06:16;3.78;;;1.08;;
44110;SDS011;29774;52.664;5.074;2023-07-30T14:08:42;0.82;;;0.50;;
44110;SDS011;29774;52.664;5.074;2023-07-30T14:11:07;2.88;;;0.75;;
44110;SDS011;29774;52.664;5.074;2023-07-30T14:13:33;2.10;;;1.02;;
44110;SDS011;29774;52.664;5.074;2023-07-30T14:15:59;2.67;;;0.73;;
44110;SDS011;29774;52.664;5.074;2023-07-30T14:18:24;1.77;;;0.70;;
44110;SDS011;29774;52.664;5.074;2023-07-30T14:20:50;3.08;;;0.90;;
44110;SDS011;29774;52.664;5.074;2023-07-30T14:23:16;1.80;;;0.88;;
44110;SDS011;29774;52.664;5.074;2023-07-30T14:25:42;3.85;;;0.98;;
44110;SDS011;29774;52.664;5.074;2023-07-30T14:28:08;2.33;;;0.60;;
44110;SDS011;29774;52.664;5.074;2023-07-30T14:30:33;1.65;;;0.75;;
44110;SDS011;29774;52.664;5.074;2023-07-30T14:33:00;1.73;;;0.70;;
44110;SDS011;29774;52.664;5.074;2023-07-30T14:35:27;2.30;;;0.60;;
44110;SDS011;29774;52.664;5.074;2023-07-30T14:37:52;1.52;;;0.85;;
44110;SDS011;29774;52.664;5.074;2023-07-30T14:40:18;4.10;;;1.35;;
44110;SDS011;29774;52.664;5.074;2023-07-30T14:42:44;1.73;;;0.73;;
44110;SDS011;29774;52.664;5.074;2023-07-30T14:45:09;2.25;;;0.70;;
44110;SDS011;29774;52.664;5.074;2023-07-30T14:47:35;3.30;;;0.95;;
44110;SDS011;29774;52.664;5.074;2023-07-30T14:50:01;1.98;;;0.70;;
44110;SDS011;29774;52.664;5.074;2023-07-30T14:52:27;3.22;;;1.02;;